Latest Weather Observations for Wattamolla

IDN60801

Issued at 2:22 pm EDT Friday 16 November 2018 (issued every 10 minutes, with the page automatically refreshed every 10 minutes)

About weather observations | Map of weather stations | Latest weather observations for NSW | Other Formats
Station Details ID: 066208 Name: WATTAMOLLA AWS Lat: -34.14 Lon: 151.12 Height: 44.0 m
Data from the previous 72 hours. | See also: Recent months for locations in New South Wales
Date/Time
EDT
Temp
°C
App
Temp
°C
Dew
Point
°C
Rel
Hum
%
Delta-T
°C
Wind Press
QNH
hPa
Press
MSL
hPa
Rain since
9am
mm
Dir  Spd
km/h
Gust
km/h
Spd
kts
Gust
kts
16/02:00pm - - - - - S 28 30 15 16 - - -
16/01:30pm - - - - - S 28 33 15 18 - - -
16/01:00pm - - - - - S 28 35 15 19 - - -
16/12:30pm - - - - - S 28 35 15 19 - - -
16/12:00pm - - - - - S 28 35 15 19 - - -
16/11:30am - - - - - S 28 37 15 20 - - -
16/11:00am - - - - - S 32 35 17 19 - - -
16/10:30am - - - - - S 32 35 17 19 - - -
16/10:00am - - - - - S 28 35 15 19 - - -
16/09:30am - - - - - S 32 41 17 22 - - -
16/09:00am - - - - - S 35 41 19 22 - - -
16/08:30am - - - - - S 35 44 19 24 - - -
16/08:00am - - - - - S 43 50 23 27 - - -
16/07:30am - - - - - S 46 52 25 28 - - -
16/07:00am - - - - - S 44 50 24 27 - - -
16/06:30am - - - - - S 43 50 23 27 - - -
16/06:00am - - - - - S 48 54 26 29 - - -
16/05:30am - - - - - S 48 54 26 29 - - -
16/05:00am - - - - - S 44 52 24 28 - - -
16/04:30am - - - - - S 44 52 24 28 - - -
16/04:00am - - - - - S 41 48 22 26 - - -
16/03:30am - - - - - S 32 41 17 22 - - -
16/03:00am - - - - - S 33 43 18 23 - - -
16/02:30am - - - - - S 39 43 21 23 - - -
16/02:00am - - - - - S 39 44 21 24 - - -
16/01:30am - - - - - S 37 48 20 26 - - -
16/01:00am - - - - - SSE 39 48 21 26 - - -
16/12:30am - - - - - SSE 41 50 22 27 - - -
16/12:00am - - - - - SSE 43 50 23 27 - - -
 
Date/Time
EDT
Temp
°C
App
Temp
°C
Dew
Point
°C
Rel
Hum
%
Delta-T
°C
Wind Press
QNH
hPa
Press
MSL
hPa
Rain since
9am
mm
Dir  Spd
km/h
Gust
km/h
Spd
kts
Gust
kts
15/11:30pm - - - - - SSE 41 54 22 29 - - -
15/11:00pm - - - - - SSE 46 54 25 29 - - -
15/10:30pm - - - - - SSE 46 56 25 30 - - -
15/10:00pm - - - - - SSE 48 57 26 31 - - -
15/09:30pm - - - - - SSE 46 57 25 31 - - -
15/09:00pm - - - - - SSE 50 59 27 32 - - -
15/08:30pm - - - - - SSE 50 59 27 32 - - -
15/08:00pm - - - - - SSE 46 61 25 33 - - -
15/07:54pm - - - - - SSE 43 61 23 33 - - -
15/07:30pm - - - - - SSE 54 67 29 36 - - -
15/07:00pm - - - - - SSE 54 65 29 35 - - -
15/06:30pm - - - - - SSE 50 63 27 34 - - -
15/06:00pm - - - - - SSE 54 70 29 38 - - -
15/05:30pm - - - - - SSE 54 67 29 36 - - -
15/05:00pm - - - - - SSE 56 70 30 38 - - -
15/04:30pm - - - - - SSE 44 56 24 30 - - -
15/04:00pm - - - - - SSE 44 54 24 29 - - -
15/03:30pm - - - - - SSE 50 61 27 33 - - -
15/03:00pm - - - - - S 46 54 25 29 - - -
15/02:30pm - - - - - SSE 48 59 26 32 - - -
15/02:00pm - - - - - SSE 50 59 27 32 - - -
15/01:30pm - - - - - S 50 59 27 32 - - -
15/01:00pm - - - - - S 50 61 27 33 - - -
15/12:30pm - - - - - S 54 59 29 32 - - -
15/12:00pm - - - - - S 52 57 28 31 - - -
15/11:30am - - - - - S 48 59 26 32 - - -
15/11:00am - - - - - S 37 39 20 21 - - -
15/10:30am - - - - - S 33 35 18 19 - - -
15/10:00am - - - - - S 32 39 17 21 - - -
15/09:30am - - - - - S 37 41 20 22 - - -
15/09:00am - - - - - S 33 41 18 22 - - -
15/08:30am - - - - - S 33 39 18 21 - - -
15/08:00am - - - - - SSE 28 37 15 20 - - -
15/07:30am - - - - - SSE 30 39 16 21 - - -
15/07:00am - - - - - S 37 44 20 24 - - -
15/06:30am - - - - - S 28 33 15 18 - - -
15/06:00am - - - - - S 26 33 14 18 - - -
15/05:30am - - - - - SSE 15 24 8 13 - - -
15/05:00am - - - - - S 22 32 12 17 - - -
15/04:30am - - - - - SSW 19 28 10 15 - - -
15/04:00am - - - - - SW 11 13 6 7 - - -
15/03:30am - - - - - SW 11 13 6 7 - - -
15/03:00am - - - - - W 15 15 8 8 - - -
15/02:30am - - - - - S 7 13 4 7 - - -
15/02:00am - - - - - NW 19 20 10 11 - - -
15/01:30am - - - - - SW 4 7 2 4 - - -
15/01:00am - - - - - WSW 9 17 5 9 - - -
15/12:30am - - - - - N 9 13 5 7 - - -
15/12:00am - - - - - N 11 13 6 7 - - -
 
Date/Time
EDT
Temp
°C
App
Temp
°C
Dew
Point
°C
Rel
Hum
%
Delta-T
°C
Wind Press
QNH
hPa
Press
MSL
hPa
Rain since
9am
mm
Dir  Spd
km/h
Gust
km/h
Spd
kts
Gust
kts
14/11:30pm - - - - - NW 13 17 7 9 - - -
14/11:00pm - - - - - NW 15 19 8 10 - - -
14/10:30pm - - - - - NNW 13 17 7 9 - - -
14/10:00pm - - - - - NNW 15 19 8 10 - - -
14/09:30pm - - - - - NNW 17 20 9 11 - - -
14/09:00pm - - - - - N 13 15 7 8 - - -
14/08:30pm - - - - - N 13 15 7 8 - - -
14/08:00pm - - - - - N 17 19 9 10 - - -
14/07:30pm - - - - - N 15 22 8 12 - - -
14/07:00pm - - - - - NNW 11 15 6 8 - - -
14/06:30pm - - - - - N 11 15 6 8 - - -
14/06:00pm - - - - - NNE 9 15 5 8 - - -
14/05:30pm - - - - - NE 11 15 6 8 - - -
14/05:00pm - - - - - NNE 9 13 5 7 - - -
14/04:30pm - - - - - N 11 15 6 8 - - -
14/04:00pm - - - - - NNE 13 19 7 10 - - -
14/03:30pm - - - - - N 11 15 6 8 - - -
14/03:00pm - - - - - NE 13 19 7 10 - - -
14/02:30pm - - - - - NE 17 26 9 14 - - -
14/02:00pm - - - - - NNE 13 22 7 12 - - -
14/01:30pm - - - - - ENE 13 19 7 10 - - -
14/01:00pm - - - - - N 9 13 5 7 - - -
14/12:30pm - - - - - NW 7 13 4 7 - - -
14/12:00pm - - - - - NNW 9 13 5 7 - - -
14/11:30am - - - - - ENE 6 11 3 6 - - -
14/11:00am - - - - - NNW 15 22 8 12 - - -
14/10:30am - - - - - NE 17 24 9 13 - - -
14/10:00am - - - - - ENE 9 11 5 6 - - -
14/09:30am - - - - - NNE 6 9 3 5 - - -
14/09:00am - - - - - N 2 9 1 5 - - -
14/08:30am - - - - - NNW 6 7 3 4 - - -
14/08:00am - - - - - NNW 6 7 3 4 - - -
14/07:30am - - - - - NNW 7 9 4 5 - - -
14/07:00am - - - - - NNW 9 13 5 7 - - -
14/06:30am - - - - - N 15 17 8 9 - - -
14/06:00am - - - - - N 13 15 7 8 - - -
14/05:30am - - - - - N 11 15 6 8 - - -
14/05:00am - - - - - N 15 19 8 10 - - -
14/04:30am - - - - - N 17 22 9 12 - - -
14/04:00am - - - - - N 17 22 9 12 - - -
14/03:30am - - - - - N 19 30 10 16 - - -
14/03:00am - - - - - N 17 26 9 14 - - -
14/02:30am - - - - - N 22 30 12 16 - - -
14/02:00am - - - - - N 20 30 11 16 - - -
14/01:30am - - - - - N 26 35 14 19 - - -
14/01:00am - - - - - N 22 32 12 17 - - -
14/12:30am - - - - - N 24 32 13 17 - - -
14/12:00am - - - - - N 26 37 14 20 - - -
 
Date/Time
EDT
Temp
°C
App
Temp
°C
Dew
Point
°C
Rel
Hum
%
Delta-T
°C
Wind Press
QNH
hPa
Press
MSL
hPa
Rain since
9am
mm
Dir  Spd
km/h
Gust
km/h
Spd
kts
Gust
kts
13/11:30pm - - - - - N 24 35 13 19 - - -
13/11:00pm - - - - - N 26 37 14 20 - - -
13/10:30pm - - - - - N 32 43 17 23 - - -
13/10:15pm - - - - - N 32 50 17 27 - - -
13/10:00pm - - - - - N 32 43 17 23 - - -
13/09:30pm - - - - - N 33 48 18 26 - - -
13/09:00pm - - - - - N 32 41 17 22 - - -
13/08:30pm - - - - - N 30 39 16 21 - - -
13/08:00pm - - - - - NNE 26 43 14 23 - - -
13/07:30pm - - - - - NNE 28 44 15 24 - - -
13/07:09pm - - - - - N 30 48 16 26 - - -
13/07:00pm - - - - - N 30 43 16 23 - - -
13/06:34pm - - - - - NNE 28 46 15 25 - - -
13/06:30pm - - - - - NNE 26 46 14 25 - - -
13/06:00pm - - - - - NNE 32 43 17 23 - - -
13/05:30pm - - - - - NNE 26 43 14 23 - - -
13/05:00pm - - - - - NNE 28 39 15 21 - - -
13/04:36pm - - - - - NE 30 48 16 26 - - -
13/04:30pm - - - - - NE 32 48 17 26 - - -
13/04:00pm - - - - - NE 33 52 18 28 - - -
13/03:59pm - - - - - NE 33 52 18 28 - - -
13/03:30pm - - - - - NE 33 50 18 27 - - -
13/03:26pm - - - - - NE 32 50 17 27 - - -
13/03:00pm - - - - - NE 32 48 17 26 - - -
13/02:41pm - - - - - NE 30 48 16 26 - - -
13/02:30pm - - - - - NE 30 44 16 24 - - -
13/02:24pm - - - - - NE 30 48 16 26 - - -

Other Formats:

Comma delimited format used in spreadsheet applications
http://www.bom.gov.au/fwo/IDN60801/IDN60801.95752.axf

JavaScript Object Notation format (JSON) in row-major order
http://www.bom.gov.au/fwo/IDN60801/IDN60801.95752.json